Rutland, VT

11:44 PM EDT on September 29, 2016 (GMT -0400)
NWS CO-OP RUTV1 | | Change Station

Elev 620 ft 43.63 °N, 72.98 °W | Updated 8 minutes ago

Clear
Clear
50.3 °F
Feels Like 50.3 °F
N
0.0
Wind Variable Wind from West
Gusts 1.0 mph

Today
High -- | Low -- °F
--% Chance of Precip.
Yesterday
High -- | Low -- °F
Precip. -- in
Pressure 30.56 in
Visibility 10.0 miles
Clouds Clear
Dew Point 45 °F
Humidity 83%
Rainfall 0.00 in
Snow Depth Not available.
6:47 AM 6:35 PM
Waning Crescent, 1% visible
METAR KRUT 300256Z AUTO VRB04KT 10SM CLR 12/06 A3050 RMK AO2 SLP349 T01220056 51006 $
Pressure 30.56 in
Visibility 10.0 miles
Clouds Clear
Dew Point 45 °F
Humidity 83%
Rainfall 0.00 in
Snow Depth Not available.
6:47 AM 6:35 PM
Waning Crescent, 1% visible
METAR KRUT 300256Z AUTO VRB04KT 10SM CLR 12/06 A3050 RMK AO2 SLP349 T01220056 51006 $

10-Day Weather Forecast

Almanac

Astronomy

Sep. 29, 2016 Rise Set
Actual Time
Civil Twilight
Nautical Twilight
Astronomical Twilight
Moon
Length of Visible Light
Length of Day
Tomorrow will be .
, % of the Moon is Illuminated

Today's Extremes

State Highs State Lows

Community

WunderPhotos

Upload Photos

1,942,654 photos uploaded!

WunderBlog® & News

Nearby

Air Quality

  Air Quality AQ Index Pollutant
Not available.

Snow Depth

Station Depth Elevation

Earthquake Activity

City Distance Mag. Time & Date
Minimum magnitude displayed is 2.5.

Coastal Water Temperatures

Place Temperature

Stations

Nearby Weather Stations

Station Location Temp. Windchill Dew Point Humidity Wind Precip. Elev Updated Type
                   

Watches & Warnings

There are currently no watches in effect.